sensor_id;sensor_type;location;lat;lon;timestamp;temperature;humidity
34776;DHT22;20989;52.566;13.346;2022-12-07T00:01:52;21.10;48.30
34776;DHT22;20989;52.566;13.346;2022-12-07T00:04:53;21.10;48.20
34776;DHT22;20989;52.566;13.346;2022-12-07T00:07:54;21.10;48.30
34776;DHT22;20989;52.566;13.346;2022-12-07T00:10:54;21.10;48.30
34776;DHT22;20989;52.566;13.346;2022-12-07T00:13:58;21.10;48.30
34776;DHT22;20989;52.566;13.346;2022-12-07T00:16:59;21.10;48.30
34776;DHT22;20989;52.566;13.346;2022-12-07T00:20:00;21.10;48.30
34776;DHT22;20989;52.566;13.346;2022-12-07T00:23:00;21.10;48.30
34776;DHT22;20989;52.566;13.346;2022-12-07T00:26:10;21.10;48.20
34776;DHT22;20989;52.566;13.346;2022-12-07T00:29:20;21.10;48.20
34776;DHT22;20989;52.566;13.346;2022-12-07T00:32:21;21.10;48.30
34776;DHT22;20989;52.566;13.346;2022-12-07T00:35:22;21.10;48.30
34776;DHT22;20989;52.566;13.346;2022-12-07T00:38:23;21.10;48.20
34776;DHT22;20989;52.566;13.346;2022-12-07T00:41:26;21.10;48.20
34776;DHT22;20989;52.566;13.346;2022-12-07T00:44:27;21.10;48.20
34776;DHT22;20989;52.566;13.346;2022-12-07T00:47:27;21.10;48.20
34776;DHT22;20989;52.566;13.346;2022-12-07T00:50:28;21.20;48.20
34776;DHT22;20989;52.566;13.346;2022-12-07T00:53:29;21.20;48.20
34776;DHT22;20989;52.566;13.346;2022-12-07T00:56:30;21.20;48.10
34776;DHT22;20989;52.566;13.346;2022-12-07T00:59:30;21.20;48.20
34776;DHT22;20989;52.566;13.346;2022-12-07T01:02:31;21.10;48.20
34776;DHT22;20989;52.566;13.346;2022-12-07T01:05:32;21.20;48.20
34776;DHT22;20989;52.566;13.346;2022-12-07T01:08:33;21.10;48.10
34776;DHT22;20989;52.566;13.346;2022-12-07T01:11:33;21.20;48.20
34776;DHT22;20989;52.566;13.346;2022-12-07T01:14:34;21.10;48.10
34776;DHT22;20989;52.566;13.346;2022-12-07T01:17:35;21.10;48.10
34776;DHT22;20989;52.566;13.346;2022-12-07T01:20:36;21.20;48.10
34776;DHT22;20989;52.566;13.346;2022-12-07T01:23:37;21.20;48.10
34776;DHT22;20989;52.566;13.346;2022-12-07T01:26:38;21.20;48.10
34776;DHT22;20989;52.566;13.346;2022-12-07T01:29:39;21.20;48.10
34776;DHT22;20989;52.566;13.346;2022-12-07T01:32:40;21.20;48.20
34776;DHT22;20989;52.566;13.346;2022-12-07T01:35:40;21.20;48.10
34776;DHT22;20989;52.566;13.346;2022-12-07T01:38:41;21.20;48.20
34776;DHT22;20989;52.566;13.346;2022-12-07T01:41:42;21.20;48.10
34776;DHT22;20989;52.566;13.346;2022-12-07T01:48:17;21.20;48.20
34776;DHT22;20989;52.566;13.346;2022-12-07T01:51:19;21.20;48.20
34776;DHT22;20989;52.566;13.346;2022-12-07T01:54:20;21.20;48.20
34776;DHT22;20989;52.566;13.346;2022-12-07T01:57:22;21.20;48.10
34776;DHT22;20989;52.566;13.346;2022-12-07T02:00:23;21.20;48.10
34776;DHT22;20989;52.566;13.346;2022-12-07T02:03:38;21.20;48.10
34776;DHT22;20989;52.566;13.346;2022-12-07T02:06:40;21.20;48.10
34776;DHT22;20989;52.566;13.346;2022-12-07T02:09:42;21.10;48.10
34776;DHT22;20989;52.566;13.346;2022-12-07T02:12:44;21.20;48.60
34776;DHT22;20989;52.566;13.346;2022-12-07T02:16:26;21.20;48.10
34776;DHT22;20989;52.566;13.346;2022-12-07T02:26:39;21.20;48.00
34776;DHT22;20989;52.566;13.346;2022-12-07T02:33:30;21.20;48.20
34776;DHT22;20989;52.566;13.346;2022-12-07T02:36:45;21.10;48.20
34776;DHT22;20989;52.566;13.346;2022-12-07T02:40:09;21.10;48.10
34776;DHT22;20989;52.566;13.346;2022-12-07T02:43:22;21.10;48.10
34776;DHT22;20989;52.566;13.346;2022-12-07T02:46:33;21.20;48.10
34776;DHT22;20989;52.566;13.346;2022-12-07T02:49:37;21.20;48.10
34776;DHT22;20989;52.566;13.346;2022-12-07T02:52:39;21.20;48.10
34776;DHT22;20989;52.566;13.346;2022-12-07T02:55:41;21.10;48.10
34776;DHT22;20989;52.566;13.346;2022-12-07T02:59:07;21.10;48.00
34776;DHT22;20989;52.566;13.346;2022-12-07T03:12:16;21.10;48.20
34776;DHT22;20989;52.566;13.346;2022-12-07T03:15:39;21.10;48.20
34776;DHT22;20989;52.566;13.346;2022-12-07T03:18:58;21.10;48.10
34776;DHT22;20989;52.566;13.346;2022-12-07T03:22:05;21.10;48.20
34776;DHT22;20989;52.566;13.346;2022-12-07T03:25:10;21.10;48.20
34776;DHT22;20989;52.566;13.346;2022-12-07T03:28:15;21.10;48.20
34776;DHT22;20989;52.566;13.346;2022-12-07T03:31:31;21.10;48.10
34776;DHT22;20989;52.566;13.346;2022-12-07T03:34:52;21.10;48.10
34776;DHT22;20989;52.566;13.346;2022-12-07T03:37:55;21.10;48.10
34776;DHT22;20989;52.566;13.346;2022-12-07T03:41:12;21.10;48.10
34776;DHT22;20989;52.566;13.346;2022-12-07T03:44:15;21.20;48.10
34776;DHT22;20989;52.566;13.346;2022-12-07T03:53:51;21.20;48.10
34776;DHT22;20989;52.566;13.346;2022-12-07T03:56:54;21.20;48.00
34776;DHT22;20989;52.566;13.346;2022-12-07T03:59:56;21.20;48.00
34776;DHT22;20989;52.566;13.346;2022-12-07T04:02:58;21.20;48.00
34776;DHT22;20989;52.566;13.346;2022-12-07T04:05:59;21.20;48.00
34776;DHT22;20989;52.566;13.346;2022-12-07T04:08:59;21.20;48.00
34776;DHT22;20989;52.566;13.346;2022-12-07T04:12:00;21.20;47.90
34776;DHT22;20989;52.566;13.346;2022-12-07T04:15:01;21.20;47.90
34776;DHT22;20989;52.566;13.346;2022-12-07T04:18:02;21.20;48.00
34776;DHT22;20989;52.566;13.346;2022-12-07T04:21:02;21.20;48.00
34776;DHT22;20989;52.566;13.346;2022-12-07T04:24:04;21.20;48.00
34776;DHT22;20989;52.566;13.346;2022-12-07T04:27:05;21.20;48.00
34776;DHT22;20989;52.566;13.346;2022-12-07T04:30:06;21.20;48.00
34776;DHT22;20989;52.566;13.346;2022-12-07T04:33:07;21.20;48.00
34776;DHT22;20989;52.566;13.346;2022-12-07T04:36:09;21.20;48.00
34776;DHT22;20989;52.566;13.346;2022-12-07T04:39:21;21.20;48.00
34776;DHT22;20989;52.566;13.346;2022-12-07T04:42:22;21.20;48.10
34776;DHT22;20989;52.566;13.346;2022-12-07T04:45:24;21.20;48.10
34776;DHT22;20989;52.566;13.346;2022-12-07T04:48:24;21.10;48.10
34776;DHT22;20989;52.566;13.346;2022-12-07T04:51:27;21.10;48.10
34776;DHT22;20989;52.566;13.346;2022-12-07T04:54:28;21.10;48.10
34776;DHT22;20989;52.566;13.346;2022-12-07T04:57:29;21.10;48.10
34776;DHT22;20989;52.566;13.346;2022-12-07T05:00:42;21.10;48.10
34776;DHT22;20989;52.566;13.346;2022-12-07T05:03:43;21.10;48.60
34776;DHT22;20989;52.566;13.346;2022-12-07T05:06:44;21.10;48.20
34776;DHT22;20989;52.566;13.346;2022-12-07T05:09:45;21.10;48.10
34776;DHT22;20989;52.566;13.346;2022-12-07T05:12:45;21.10;48.10
34776;DHT22;20989;52.566;13.346;2022-12-07T05:15:47;21.10;48.10
34776;DHT22;20989;52.566;13.346;2022-12-07T05:18:48;21.10;48.10
34776;DHT22;20989;52.566;13.346;2022-12-07T05:21:49;21.10;48.10
34776;DHT22;20989;52.566;13.346;2022-12-07T05:24:50;21.10;48.10
34776;DHT22;20989;52.566;13.346;2022-12-07T05:27:51;21.10;48.20
34776;DHT22;20989;52.566;13.346;2022-12-07T05:30:51;21.10;48.10
34776;DHT22;20989;52.566;13.346;2022-12-07T05:33:52;21.10;48.10
34776;DHT22;20989;52.566;13.346;2022-12-07T05:36:53;21.10;48.10
34776;DHT22;20989;52.566;13.346;2022-12-07T05:39:54;21.10;48.10
34776;DHT22;20989;52.566;13.346;2022-12-07T05:42:54;21.10;48.10
34776;DHT22;20989;52.566;13.346;2022-12-07T05:45:55;21.10;48.10
34776;DHT22;20989;52.566;13.346;2022-12-07T05:48:56;21.10;48.10
34776;DHT22;20989;52.566;13.346;2022-12-07T05:51:57;21.10;48.10
34776;DHT22;20989;52.566;13.346;2022-12-07T05:54:58;21.10;48.00
34776;DHT22;20989;52.566;13.346;2022-12-07T05:57:58;21.10;48.00
34776;DHT22;20989;52.566;13.346;2022-12-07T06:01:18;21.10;48.00
34776;DHT22;20989;52.566;13.346;2022-12-07T06:04:19;21.10;48.00
34776;DHT22;20989;52.566;13.346;2022-12-07T06:07:20;21.10;48.00
34776;DHT22;20989;52.566;13.346;2022-12-07T06:10:21;21.10;48.00
34776;DHT22;20989;52.566;13.346;2022-12-07T06:13:22;21.10;48.00
34776;DHT22;20989;52.566;13.346;2022-12-07T06:16:23;21.10;48.00
34776;DHT22;20989;52.566;13.346;2022-12-07T06:19:23;21.00;48.20
34776;DHT22;20989;52.566;13.346;2022-12-07T06:22:24;21.00;47.90
34776;DHT22;20989;52.566;13.346;2022-12-07T06:25:24;21.10;47.70
34776;DHT22;20989;52.566;13.346;2022-12-07T06:28:25;21.10;47.60
34776;DHT22;20989;52.566;13.346;2022-12-07T06:31:26;21.10;47.70
34776;DHT22;20989;52.566;13.346;2022-12-07T06:34:26;21.10;47.70
34776;DHT22;20989;52.566;13.346;2022-12-07T06:37:27;21.10;47.70
34776;DHT22;20989;52.566;13.346;2022-12-07T06:40:28;21.10;47.70
34776;DHT22;20989;52.566;13.346;2022-12-07T06:43:29;21.10;47.80
34776;DHT22;20989;52.566;13.346;2022-12-07T06:46:30;21.10;47.90
34776;DHT22;20989;52.566;13.346;2022-12-07T06:49:30;21.10;47.90
34776;DHT22;20989;52.566;13.346;2022-12-07T06:52:31;21.10;47.90
34776;DHT22;20989;52.566;13.346;2022-12-07T06:55:32;21.10;47.90
34776;DHT22;20989;52.566;13.346;2022-12-07T06:58:32;21.10;47.90
34776;DHT22;20989;52.566;13.346;2022-12-07T07:01:34;21.10;47.90
34776;DHT22;20989;52.566;13.346;2022-12-07T07:04:35;21.10;47.90
34776;DHT22;20989;52.566;13.346;2022-12-07T07:07:35;21.10;47.90
34776;DHT22;20989;52.566;13.346;2022-12-07T07:10:36;21.10;48.00
34776;DHT22;20989;52.566;13.346;2022-12-07T07:13:37;21.10;48.00
34776;DHT22;20989;52.566;13.346;2022-12-07T07:16:38;21.10;48.00
34776;DHT22;20989;52.566;13.346;2022-12-07T07:19:39;21.10;48.10
34776;DHT22;20989;52.566;13.346;2022-12-07T07:22:39;21.10;48.10
34776;DHT22;20989;52.566;13.346;2022-12-07T07:25:40;21.10;48.10
34776;DHT22;20989;52.566;13.346;2022-12-07T07:28:41;21.10;48.20
34776;DHT22;20989;52.566;13.346;2022-12-07T07:31:41;21.10;48.20
34776;DHT22;20989;52.566;13.346;2022-12-07T07:34:42;21.10;48.00
34776;DHT22;20989;52.566;13.346;2022-12-07T07:37:43;21.10;48.20
34776;DHT22;20989;52.566;13.346;2022-12-07T07:40:44;21.00;48.20
34776;DHT22;20989;52.566;13.346;2022-12-07T07:43:45;21.10;48.20
34776;DHT22;20989;52.566;13.346;2022-12-07T07:46:46;21.10;48.70
34776;DHT22;20989;52.566;13.346;2022-12-07T07:49:47;21.10;48.20
34776;DHT22;20989;52.566;13.346;2022-12-07T07:52:48;21.10;48.10
34776;DHT22;20989;52.566;13.346;2022-12-07T07:55:52;21.10;48.10
34776;DHT22;20989;52.566;13.346;2022-12-07T07:58:54;21.10;48.00
34776;DHT22;20989;52.566;13.346;2022-12-07T08:01:55;21.10;48.10
34776;DHT22;20989;52.566;13.346;2022-12-07T08:04:55;21.10;48.10
34776;DHT22;20989;52.566;13.346;2022-12-07T08:07:57;21.10;48.00
34776;DHT22;20989;52.566;13.346;2022-12-07T08:10:58;21.10;48.00
34776;DHT22;20989;52.566;13.346;2022-12-07T08:14:01;21.10;48.00
34776;DHT22;20989;52.566;13.346;2022-12-07T08:17:02;21.10;48.00
34776;DHT22;20989;52.566;13.346;2022-12-07T08:20:03;21.10;48.00
34776;DHT22;20989;52.566;13.346;2022-12-07T08:23:05;21.10;48.00
34776;DHT22;20989;52.566;13.346;2022-12-07T08:26:09;21.10;48.00
34776;DHT22;20989;52.566;13.346;2022-12-07T08:29:10;21.10;48.00
34776;DHT22;20989;52.566;13.346;2022-12-07T08:32:11;21.10;48.10
34776;DHT22;20989;52.566;13.346;2022-12-07T08:35:12;21.10;48.10
34776;DHT22;20989;52.566;13.346;2022-12-07T08:38:13;21.10;48.10
34776;DHT22;20989;52.566;13.346;2022-12-07T08:41:14;21.10;48.10
34776;DHT22;20989;52.566;13.346;2022-12-07T08:44:15;21.10;48.10
34776;DHT22;20989;52.566;13.346;2022-12-07T08:47:16;21.10;48.10
34776;DHT22;20989;52.566;13.346;2022-12-07T08:50:17;21.00;48.20
34776;DHT22;20989;52.566;13.346;2022-12-07T08:53:18;21.10;48.20
34776;DHT22;20989;52.566;13.346;2022-12-07T08:56:19;21.00;48.10
34776;DHT22;20989;52.566;13.346;2022-12-07T08:59:20;21.00;48.10
34776;DHT22;20989;52.566;13.346;2022-12-07T09:02:21;21.00;48.20
34776;DHT22;20989;52.566;13.346;2022-12-07T09:05:22;21.00;48.20
34776;DHT22;20989;52.566;13.346;2022-12-07T09:08:28;21.00;48.10
34776;DHT22;20989;52.566;13.346;2022-12-07T09:11:30;21.00;48.10
34776;DHT22;20989;52.566;13.346;2022-12-07T09:14:31;21.00;48.00
34776;DHT22;20989;52.566;13.346;2022-12-07T09:17:32;21.00;48.10
34776;DHT22;20989;52.566;13.346;2022-12-07T09:20:33;21.00;48.00
34776;DHT22;20989;52.566;13.346;2022-12-07T09:23:34;21.00;48.00
34776;DHT22;20989;52.566;13.346;2022-12-07T09:26:35;21.00;48.00
34776;DHT22;20989;52.566;13.346;2022-12-07T09:29:35;21.00;48.00
34776;DHT22;20989;52.566;13.346;2022-12-07T09:32:37;21.00;48.00
34776;DHT22;20989;52.566;13.346;2022-12-07T09:35:37;21.00;48.00
34776;DHT22;20989;52.566;13.346;2022-12-07T09:38:38;21.00;47.90
34776;DHT22;20989;52.566;13.346;2022-12-07T09:41:41;21.00;47.90
34776;DHT22;20989;52.566;13.346;2022-12-07T09:44:42;21.00;47.90
34776;DHT22;20989;52.566;13.346;2022-12-07T09:47:43;21.00;47.80
34776;DHT22;20989;52.566;13.346;2022-12-07T09:50:45;21.00;47.80
34776;DHT22;20989;52.566;13.346;2022-12-07T09:53:46;21.00;47.70
34776;DHT22;20989;52.566;13.346;2022-12-07T09:56:47;21.00;47.70
34776;DHT22;20989;52.566;13.346;2022-12-07T09:59:48;21.00;47.70
34776;DHT22;20989;52.566;13.346;2022-12-07T10:02:59;21.00;47.60
34776;DHT22;20989;52.566;13.346;2022-12-07T10:06:00;21.00;47.70
34776;DHT22;20989;52.566;13.346;2022-12-07T10:09:07;21.00;47.70
34776;DHT22;20989;52.566;13.346;2022-12-07T10:12:11;21.00;47.60
34776;DHT22;20989;52.566;13.346;2022-12-07T10:15:12;21.00;47.60
34776;DHT22;20989;52.566;13.346;2022-12-07T10:18:34;21.00;47.60
34776;DHT22;20989;52.566;13.346;2022-12-07T10:21:36;21.00;47.50
34776;DHT22;20989;52.566;13.346;2022-12-07T10:24:38;21.00;47.40
34776;DHT22;20989;52.566;13.346;2022-12-07T10:27:41;21.10;47.40
34776;DHT22;20989;52.566;13.346;2022-12-07T10:31:00;21.10;47.40
34776;DHT22;20989;52.566;13.346;2022-12-07T10:34:03;21.10;47.40
34776;DHT22;20989;52.566;13.346;2022-12-07T10:43:24;21.10;47.40
34776;DHT22;20989;52.566;13.346;2022-12-07T10:53:26;21.10;47.40
34776;DHT22;20989;52.566;13.346;2022-12-07T11:00:17;21.10;47.50
34776;DHT22;20989;52.566;13.346;2022-12-07T11:07:14;21.10;47.50
34776;DHT22;20989;52.566;13.346;2022-12-07T11:16:57;21.10;47.60
34776;DHT22;20989;52.566;13.346;2022-12-07T11:39:44;21.00;47.70
34776;DHT22;20989;52.566;13.346;2022-12-07T11:42:54;21.00;47.70
34776;DHT22;20989;52.566;13.346;2022-12-07T11:46:13;21.00;47.70
34776;DHT22;20989;52.566;13.346;2022-12-07T11:49:40;21.00;47.60
34776;DHT22;20989;52.566;13.346;2022-12-07T11:52:51;21.00;47.60
34776;DHT22;20989;52.566;13.346;2022-12-07T11:55:57;21.00;47.50
34776;DHT22;20989;52.566;13.346;2022-12-07T11:59:13;21.00;47.60
34776;DHT22;20989;52.566;13.346;2022-12-07T12:02:20;21.00;47.40
34776;DHT22;20989;52.566;13.346;2022-12-07T12:05:25;21.10;47.60
34776;DHT22;20989;52.566;13.346;2022-12-07T12:21:39;21.10;47.50
34776;DHT22;20989;52.566;13.346;2022-12-07T12:24:43;21.10;47.60
34776;DHT22;20989;52.566;13.346;2022-12-07T12:27:47;21.10;47.50
34776;DHT22;20989;52.566;13.346;2022-12-07T12:31:29;21.10;47.50
34776;DHT22;20989;52.566;13.346;2022-12-07T12:34:32;21.10;48.00
34776;DHT22;20989;52.566;13.346;2022-12-07T12:40:39;21.10;47.60
34776;DHT22;20989;52.566;13.346;2022-12-07T12:43:48;21.10;47.50
34776;DHT22;20989;52.566;13.346;2022-12-07T12:50:17;21.10;47.40
34776;DHT22;20989;52.566;13.346;2022-12-07T12:53:25;21.10;47.40
34776;DHT22;20989;52.566;13.346;2022-12-07T13:00:00;21.10;47.60
34776;DHT22;20989;52.566;13.346;2022-12-07T13:03:04;21.10;47.60
34776;DHT22;20989;52.566;13.346;2022-12-07T13:09:28;21.10;47.60
34776;DHT22;20989;52.566;13.346;2022-12-07T13:12:30;21.10;47.60
34776;DHT22;20989;52.566;13.346;2022-12-07T13:24:35;21.10;47.60
34776;DHT22;20989;52.566;13.346;2022-12-07T13:27:38;21.10;47.50
34776;DHT22;20989;52.566;13.346;2022-12-07T13:31:04;21.10;47.60
34776;DHT22;20989;52.566;13.346;2022-12-07T13:34:41;21.10;47.40
34776;DHT22;20989;52.566;13.346;2022-12-07T13:37:42;21.10;47.50
34776;DHT22;20989;52.566;13.346;2022-12-07T13:40:43;21.10;47.60
34776;DHT22;20989;52.566;13.346;2022-12-07T13:44:16;21.10;47.60
34776;DHT22;20989;52.566;13.346;2022-12-07T13:47:22;21.10;47.60
34776;DHT22;20989;52.566;13.346;2022-12-07T13:50:29;21.10;47.50
34776;DHT22;20989;52.566;13.346;2022-12-07T13:53:30;21.10;47.60
34776;DHT22;20989;52.566;13.346;2022-12-07T13:56:35;21.10;47.60
34776;DHT22;20989;52.566;13.346;2022-12-07T13:59:36;21.10;47.40
34776;DHT22;20989;52.566;13.346;2022-12-07T14:06:25;21.10;47.60
34776;DHT22;20989;52.566;13.346;2022-12-07T14:09:28;21.10;47.50
34776;DHT22;20989;52.566;13.346;2022-12-07T14:12:30;21.10;47.50
34776;DHT22;20989;52.566;13.346;2022-12-07T14:15:33;21.10;47.50
34776;DHT22;20989;52.566;13.346;2022-12-07T14:18:41;21.10;47.60
34776;DHT22;20989;52.566;13.346;2022-12-07T14:21:41;21.10;47.70
34776;DHT22;20989;52.566;13.346;2022-12-07T14:24:43;21.10;47.70
34776;DHT22;20989;52.566;13.346;2022-12-07T14:27:51;21.10;47.60
34776;DHT22;20989;52.566;13.346;2022-12-07T14:30:53;21.10;47.60
34776;DHT22;20989;52.566;13.346;2022-12-07T14:33:53;21.10;47.60
34776;DHT22;20989;52.566;13.346;2022-12-07T14:36:54;21.10;47.50
34776;DHT22;20989;52.566;13.346;2022-12-07T14:39:55;21.10;47.60
34776;DHT22;20989;52.566;13.346;2022-12-07T14:43:05;21.10;47.60
34776;DHT22;20989;52.566;13.346;2022-12-07T14:46:07;21.10;47.60
34776;DHT22;20989;52.566;13.346;2022-12-07T14:49:08;21.10;47.70
34776;DHT22;20989;52.566;13.346;2022-12-07T14:52:23;21.10;47.60
34776;DHT22;20989;52.566;13.346;2022-12-07T14:55:29;21.10;47.60
34776;DHT22;20989;52.566;13.346;2022-12-07T14:58:31;21.10;47.60
34776;DHT22;20989;52.566;13.346;2022-12-07T15:01:32;21.10;47.60
34776;DHT22;20989;52.566;13.346;2022-12-07T15:04:33;21.10;47.60
34776;DHT22;20989;52.566;13.346;2022-12-07T15:07:34;21.10;47.60
34776;DHT22;20989;52.566;13.346;2022-12-07T15:10:34;21.10;47.60
34776;DHT22;20989;52.566;13.346;2022-12-07T15:13:38;21.10;47.60
34776;DHT22;20989;52.566;13.346;2022-12-07T15:16:58;21.10;47.60
34776;DHT22;20989;52.566;13.346;2022-12-07T15:19:59;21.10;47.60
34776;DHT22;20989;52.566;13.346;2022-12-07T15:22:59;21.10;47.50
34776;DHT22;20989;52.566;13.346;2022-12-07T15:26:00;21.10;47.60
34776;DHT22;20989;52.566;13.346;2022-12-07T15:29:01;21.10;47.60
34776;DHT22;20989;52.566;13.346;2022-12-07T15:32:01;21.10;47.60
34776;DHT22;20989;52.566;13.346;2022-12-07T15:35:02;21.10;47.60
34776;DHT22;20989;52.566;13.346;2022-12-07T15:38:03;21.10;47.60
34776;DHT22;20989;52.566;13.346;2022-12-07T15:41:04;21.10;47.60
34776;DHT22;20989;52.566;13.346;2022-12-07T15:44:04;21.10;47.70
34776;DHT22;20989;52.566;13.346;2022-12-07T15:47:24;21.10;47.60
34776;DHT22;20989;52.566;13.346;2022-12-07T15:50:24;21.00;47.60
34776;DHT22;20989;52.566;13.346;2022-12-07T15:53:25;21.10;47.70
34776;DHT22;20989;52.566;13.346;2022-12-07T15:56:26;21.00;47.70
34776;DHT22;20989;52.566;13.346;2022-12-07T15:59:27;21.10;47.80
34776;DHT22;20989;52.566;13.346;2022-12-07T16:02:29;21.00;47.70
34776;DHT22;20989;52.566;13.346;2022-12-07T16:05:29;21.10;47.70
34776;DHT22;20989;52.566;13.346;2022-12-07T16:08:30;21.00;47.60
34776;DHT22;20989;52.566;13.346;2022-12-07T16:11:31;21.00;47.60
34776;DHT22;20989;52.566;13.346;2022-12-07T16:14:32;21.00;47.50
34776;DHT22;20989;52.566;13.346;2022-12-07T16:17:33;21.10;47.60
34776;DHT22;20989;52.566;13.346;2022-12-07T16:20:34;21.10;47.50
34776;DHT22;20989;52.566;13.346;2022-12-07T16:23:36;21.10;47.60
34776;DHT22;20989;52.566;13.346;2022-12-07T16:26:37;21.10;47.60
34776;DHT22;20989;52.566;13.346;2022-12-07T16:29:38;21.00;47.30
34776;DHT22;20989;52.566;13.346;2022-12-07T16:32:40;20.80;47.20
34776;DHT22;20989;52.566;13.346;2022-12-07T16:35:40;20.90;46.40
34776;DHT22;20989;52.566;13.346;2022-12-07T16:38:42;21.10;46.10
34776;DHT22;20989;52.566;13.346;2022-12-07T16:41:42;21.10;45.80
34776;DHT22;20989;52.566;13.346;2022-12-07T16:44:44;21.10;45.10
34776;DHT22;20989;52.566;13.346;2022-12-07T16:47:45;21.20;45.50
34776;DHT22;20989;52.566;13.346;2022-12-07T16:50:46;21.20;45.60
34776;DHT22;20989;52.566;13.346;2022-12-07T16:53:47;21.20;45.80
34776;DHT22;20989;52.566;13.346;2022-12-07T16:56:48;21.20;45.80
34776;DHT22;20989;52.566;13.346;2022-12-07T16:59:50;21.20;45.90
34776;DHT22;20989;52.566;13.346;2022-12-07T17:02:51;21.30;46.00
34776;DHT22;20989;52.566;13.346;2022-12-07T17:05:52;21.30;46.10
34776;DHT22;20989;52.566;13.346;2022-12-07T17:08:53;21.30;46.10
34776;DHT22;20989;52.566;13.346;2022-12-07T17:11:54;21.40;46.00
34776;DHT22;20989;52.566;13.346;2022-12-07T17:14:55;21.40;45.90
34776;DHT22;20989;52.566;13.346;2022-12-07T17:18:14;21.50;46.20
34776;DHT22;20989;52.566;13.346;2022-12-07T17:21:15;21.50;47.20
34776;DHT22;20989;52.566;13.346;2022-12-07T17:24:16;21.50;46.30
34776;DHT22;20989;52.566;13.346;2022-12-07T17:27:17;21.60;46.90
34776;DHT22;20989;52.566;13.346;2022-12-07T17:30:17;21.60;46.70
34776;DHT22;20989;52.566;13.346;2022-12-07T17:33:18;21.70;46.30
34776;DHT22;20989;52.566;13.346;2022-12-07T17:36:23;21.60;46.10
34776;DHT22;20989;52.566;13.346;2022-12-07T17:39:24;21.60;47.80
34776;DHT22;20989;52.566;13.346;2022-12-07T17:42:25;21.60;47.40
34776;DHT22;20989;52.566;13.346;2022-12-07T17:45:40;21.70;47.00
34776;DHT22;20989;52.566;13.346;2022-12-07T17:48:40;21.70;46.60
34776;DHT22;20989;52.566;13.346;2022-12-07T17:51:42;21.70;46.50
34776;DHT22;20989;52.566;13.346;2022-12-07T17:55:02;21.70;46.10
34776;DHT22;20989;52.566;13.346;2022-12-07T17:58:02;21.80;46.10
34776;DHT22;20989;52.566;13.346;2022-12-07T18:01:08;21.80;45.70
34776;DHT22;20989;52.566;13.346;2022-12-07T18:04:09;21.70;46.20
34776;DHT22;20989;52.566;13.346;2022-12-07T18:07:10;21.80;47.70
34776;DHT22;20989;52.566;13.346;2022-12-07T18:10:11;21.90;46.70
34776;DHT22;20989;52.566;13.346;2022-12-07T18:13:11;21.90;46.60
34776;DHT22;20989;52.566;13.346;2022-12-07T18:16:32;22.00;47.60
34776;DHT22;20989;52.566;13.346;2022-12-07T18:19:36;22.00;47.10
34776;DHT22;20989;52.566;13.346;2022-12-07T18:22:36;22.00;47.00
34776;DHT22;20989;52.566;13.346;2022-12-07T18:25:39;22.00;46.60
34776;DHT22;20989;52.566;13.346;2022-12-07T18:28:44;22.00;47.30
34776;DHT22;20989;52.566;13.346;2022-12-07T18:31:45;22.00;47.20
34776;DHT22;20989;52.566;13.346;2022-12-07T18:34:46;22.00;47.00
34776;DHT22;20989;52.566;13.346;2022-12-07T18:37:47;22.00;47.60
34776;DHT22;20989;52.566;13.346;2022-12-07T18:40:48;21.90;46.10
34776;DHT22;20989;52.566;13.346;2022-12-07T18:43:48;21.90;46.60
34776;DHT22;20989;52.566;13.346;2022-12-07T18:46:49;21.90;46.20
34776;DHT22;20989;52.566;13.346;2022-12-07T18:49:50;21.90;46.70
34776;DHT22;20989;52.566;13.346;2022-12-07T18:52:50;21.90;47.10
34776;DHT22;20989;52.566;13.346;2022-12-07T18:56:00;21.90;47.30
34776;DHT22;20989;52.566;13.346;2022-12-07T18:59:02;21.90;47.60
34776;DHT22;20989;52.566;13.346;2022-12-07T19:02:22;21.90;47.40
34776;DHT22;20989;52.566;13.346;2022-12-07T19:05:23;22.00;47.30
34776;DHT22;20989;52.566;13.346;2022-12-07T19:08:24;21.90;47.00
34776;DHT22;20989;52.566;13.346;2022-12-07T19:11:28;21.90;46.50
34776;DHT22;20989;52.566;13.346;2022-12-07T19:14:48;21.90;46.40
34776;DHT22;20989;52.566;13.346;2022-12-07T19:17:48;21.90;47.00
34776;DHT22;20989;52.566;13.346;2022-12-07T19:20:49;21.90;47.00
34776;DHT22;20989;52.566;13.346;2022-12-07T19:23:50;21.80;47.20
34776;DHT22;20989;52.566;13.346;2022-12-07T19:26:51;21.80;46.50
34776;DHT22;20989;52.566;13.346;2022-12-07T19:29:52;21.70;47.10
34776;DHT22;20989;52.566;13.346;2022-12-07T19:32:53;21.80;46.70
34776;DHT22;20989;52.566;13.346;2022-12-07T19:35:53;21.80;46.50
34776;DHT22;20989;52.566;13.346;2022-12-07T19:38:54;21.80;47.30
34776;DHT22;20989;52.566;13.346;2022-12-07T19:41:55;21.60;47.10
34776;DHT22;20989;52.566;13.346;2022-12-07T19:44:56;21.60;47.10
34776;DHT22;20989;52.566;13.346;2022-12-07T19:47:57;21.50;47.20
34776;DHT22;20989;52.566;13.346;2022-12-07T19:51:04;21.40;47.30
34776;DHT22;20989;52.566;13.346;2022-12-07T19:54:05;21.40;47.50
34776;DHT22;20989;52.566;13.346;2022-12-07T19:57:06;21.30;47.50
34776;DHT22;20989;52.566;13.346;2022-12-07T20:00:09;21.30;47.60
34776;DHT22;20989;52.566;13.346;2022-12-07T20:03:09;21.30;47.70
34776;DHT22;20989;52.566;13.346;2022-12-07T20:06:13;21.20;47.60
34776;DHT22;20989;52.566;13.346;2022-12-07T20:09:14;21.20;47.70
34776;DHT22;20989;52.566;13.346;2022-12-07T20:12:15;21.10;47.70
34776;DHT22;20989;52.566;13.346;2022-12-07T20:15:37;21.10;47.70
34776;DHT22;20989;52.566;13.346;2022-12-07T20:18:37;21.10;47.80
34776;DHT22;20989;52.566;13.346;2022-12-07T20:21:38;21.10;47.80
34776;DHT22;20989;52.566;13.346;2022-12-07T20:24:39;21.10;47.90
34776;DHT22;20989;52.566;13.346;2022-12-07T20:27:40;21.10;47.70
34776;DHT22;20989;52.566;13.346;2022-12-07T20:30:52;21.00;47.80
34776;DHT22;20989;52.566;13.346;2022-12-07T20:33:53;21.00;47.90
34776;DHT22;20989;52.566;13.346;2022-12-07T20:36:55;21.00;47.90
34776;DHT22;20989;52.566;13.346;2022-12-07T20:39:56;21.00;47.90
34776;DHT22;20989;52.566;13.346;2022-12-07T20:42:56;21.00;48.00
34776;DHT22;20989;52.566;13.346;2022-12-07T20:45:57;21.00;48.20
34776;DHT22;20989;52.566;13.346;2022-12-07T20:48:59;21.00;48.20
34776;DHT22;20989;52.566;13.346;2022-12-07T20:52:00;21.10;48.20
34776;DHT22;20989;52.566;13.346;2022-12-07T20:55:01;21.10;48.10
34776;DHT22;20989;52.566;13.346;2022-12-07T20:58:02;21.10;48.00